Wetterstation Rottenburg Seebronn / 442m msl / http://mut-lambrecht.de
LETZTE AKTUALISIERUNG UM: 08:00 DATUM: Juni 21 2018, time of next update: 08:05
Aktuelles WetterClear Aktuelle Temperatur 20.9°C (69.6°F) (Hitze-Index 20.9°C ), Apparent temp 22.8°C
Höchsttemperatur (seit Mitternacht)20.9°C um: 07:56 Tiefsttemperatur (seit Mitternacht)16.9°C um: 05:08
Windgeschwindigkeit (10 Minuten )2.0 kmh (1.1 kts) Windrichtung (Dir) (10 Minuten )NNE (31°)
Windchill Temperatur 20.9°C Windspitzen (letzte Std)7.5 kmh (4.1 kts) um: 07:43
Windspitzen (seit Mitternacht)11.4 kmh (6.2 kts) um: 06:47 Höchstes Windmittel / Minute (seit Mitternacht)5.8 kmh (3.1 kts) um: 06:19
Regenmenge (letzte Std)0.0 mm Regenmenge (seit Mitternacht)0.0 mm (0.00 in.)---
Regenmenge diesen Monat 41.5 mm (1.63 in.) Regenmenge seit Jahresbeginn 304.7 mm (12.00 in.)
Höchste Regenmenge pro Minute (letzte Std)0.0 mm/min Höchste Regenmenge pro Stunde (letzte 6 Std)0.0 mm/stunde
Regenmenge Gestern 0.0 mm Taupunkt 16.9°C (Wet Bulb :18.5°C )
Luftfeuchtigkeit 78 %, Humidex 26.1°C Aktueller Luftdruck (auf Meereshöhe bezogen)1016.6 hPa
Luftdrucktendenz +0.6 hPa (letzte Std) Trend (letzte 1 Std)leicht steigend
Luftdrucktendenz (letzte 12 Std)-2.7 hPa Luftdrucktendenz (letzte 6 Std)-0.7 hPa



Weather report/warning/Metars

Stuttgart-Echterdingen, Germany (EDDS) 48-41N 009-13E 391M
Jun 21, 2018 - 01:20 AM EDT / 2018.06.21 0520 UTC
Wind: Variable at 2 MPH (2 KT):0
Visibility: greater than 7 mile(s):0
Temperature: 68 F (20 C)
Dew Point: 60 F (16 C)
Relative Humidity: 77%
Pressure (altimeter): 30.03 in. Hg (1017 hPa)
ob: EDDS 210520Z VRB02KT CAVOK 20/16 Q1017 NOSIG
cycle: 5
Karlsruhe, Baden Wurttemberg, Germany (EDSB) 48-46-43N 008-04-47E
Jun 21, 2018 - 01:20 AM EDT / 2018.06.21 0520 UTC
Wind: from the SSW (210 degrees) at 9 MPH (8 KT):0
Visibility: greater than 7 mile(s):0
Temperature: 68 F (20 C)
Dew Point: 62 F (17 C)
Relative Humidity: 82%
Pressure (altimeter): 30.03 in. Hg (1017 hPa)
ob: EDSB 210520Z 21008KT CAVOK 20/17 Q1017
cycle: 5
Lahr, CAN-AFB, Germany (EDTL) 48-22-09N 007-49-40E
Jun 21, 2018 - 01:20 AM EDT / 2018.06.21 0520 UTC
Wind: from the S (170 degrees) at 3 MPH (3 KT):0
Visibility: greater than 7 mile(s):0
Temperature: 69 F (21 C)
Dew Point: 62 F (17 C)
Relative Humidity: 77%
Pressure (altimeter): 30.03 in. Hg (1017 hPa)
ob: EDTL 210520Z 17003KT CAVOK 21/17 Q1017
cycle: 5
Laupheim, Germany (ETHL) 48-13N 009-55E 550M
Jun 21, 2018 - 01:20 AM EDT / 2018.06.21 0520 UTC
Wind: from the SSW (200 degrees) at 7 MPH (6 KT):0
Visibility: greater than 7 mile(s):0
Sky conditions: mostly clear
Temperature: 64 F (18 C)
Dew Point: 59 F (15 C)
Relative Humidity: 82%
Pressure (altimeter): 30.06 in. Hg (1018 hPa)
ob: ETHL 210520Z 20006KT 9999 FEW050 18/15 Q1018 BLU+BLU+
cycle: 5


Klicken Sie hier, um zu den Durchschnitts-, Extrem-, Monats- oder Tageswerten zu gelangen


Die Wetterdaten werden alle 5 Minuten aktualisiert.
Die 3 stündige Echtzeitgrafik wird jede Minute aktualisiert.
Bei der 3 stündige Echtzeitgrafik sind derzeit die Skalenfarben von Winddurchschnitt u. Windböen vertauscht. (Softwarebug)

Drücken Sie gegebenenfalls auf "Aktualisieren" in Ihrem Browser, um die aktuellsten Daten zu erhalten.